Terminal Aerodrome Forecast
Issued by NWS

Home | Current Version | Previous Version | Text Only | Print | Product List | Glossary On
Versions: 1 2 3 4 5 6 7 8 9 10 11 12 13 14 15 16 17 18 19 20
000
FTUS44 KLZK 230538
TAFLLQ
TAF
KLLQ 230538Z 2306/2406 07005KT 6SM -RA BR BKN002 OVC020
      WS020/20040KT
      TEMPO 2306/2309 3SM -RA BR OVC002
     FM230900 07005KT 5SM -RA BR VCTS BKN005 OVC015CB WS020/20040KT
      TEMPO 2309/2312 1SM RA BR OVC002
     FM231200 17005KT 3SM -RA BR BKN002 OVC020
     FM231500 22006KT 5SM -SHRA BR VCTS BKN005 OVC015CB=

USA.gov is the U.S. government's official web portal to all federal, state and local government web resources and services.